Time;durP1;ratioP1;P1;durP2;ratioP2;P2;SDS_P1;SDS_P2;PMS_P1;PMS_P2;Temp;Humidity;BMP_temperature;BMP_pressure;BME280_temperature;BME280_humidity;BME280_pressure;Samples;Min_cycle;Max_cycle;Signal;HPM_P1;HPM_P2
2022/06/16 00:00:57;;;;;;;8.90;2.30;;;15.30;99.90;;;;;;5071599;28;20089;-52
2022/06/16 00:03:23;;;;;;;6.88;1.88;;;15.20;99.90;;;;;;5071392;28;20418;-51
2022/06/16 00:05:49;;;;;;;5.68;2.33;;;15.20;99.90;;;;;;5071498;28;20074;-51
2022/06/16 00:08:16;;;;;;;5.97;1.90;;;15.20;99.90;;;;;;5071135;28;20036;-48
2022/06/16 00:11:16;;;;;;;7.32;1.90;;;15.30;99.90;;;;;;5070177;28;20056;-51
2022/06/16 00:13:30;;;;;;;6.53;2.05;;;15.30;99.90;;;;;;5071060;28;20174;-52
2022/06/16 00:15:56;;;;;;;8.05;2.28;;;15.30;99.90;;;;;;5071339;28;20055;-49
2022/06/16 00:18:21;;;;;;;4.75;1.80;;;15.40;99.90;;;;;;5071396;28;20037;-52
2022/06/16 00:20:47;;;;;;;4.30;1.88;;;15.30;99.90;;;;;;5069923;28;20043;-50
2022/06/16 00:23:12;;;;;;;6.63;2.15;;;15.30;99.90;;;;;;5071083;28;20080;-51
2022/06/16 00:25:38;;;;;;;5.18;1.98;;;15.30;99.90;;;;;;5071480;28;20546;-51
2022/06/16 00:28:04;;;;;;;6.05;2.20;;;15.30;99.90;;;;;;5070242;28;20071;-50
2022/06/16 00:30:29;;;;;;;3.75;1.85;;;15.40;99.90;;;;;;5070820;28;20032;-48
2022/06/16 00:32:55;;;;;;;4.00;2.05;;;15.30;99.90;;;;;;5088245;28;20123;-51
2022/06/16 00:35:21;;;;;;;8.07;2.60;;;15.30;99.90;;;;;;5091117;28;20068;-50
2022/06/16 00:37:46;;;;;;;5.88;2.25;;;15.30;99.90;;;;;;5091133;28;20490;-50
2022/06/16 00:40:12;;;;;;;7.70;2.47;;;15.30;99.90;;;;;;5091215;28;20047;-51
2022/06/16 00:42:38;;;;;;;7.43;2.08;;;15.20;99.90;;;;;;5091223;28;20044;-49
2022/06/16 00:46:01;;;;;;;7.97;1.98;;;15.20;99.90;;;;;;5091044;28;20044;-50
2022/06/16 00:48:29;;;;;;;;;;;15.10;99.90;;;;;;5038538;28;20078;-49
2022/06/16 00:51:00;;;;;;;7.97;1.90;;;15.10;99.90;;;;;;5048621;28;20011;-49
2022/06/16 00:53:28;;;;;;;7.40;2.13;;;14.90;99.90;;;;;;5048617;28;20057;-52
2022/06/16 00:55:54;;;;;;;4.85;2.00;;;14.90;99.90;;;;;;5048525;28;20499;-51
2022/06/16 00:58:22;;;;;;;5.95;2.55;;;14.90;99.90;;;;;;5050905;28;20127;-52
2022/06/16 01:00:50;;;;;;;4.88;2.25;;;14.90;99.90;;;;;;5052009;28;20542;-52
2022/06/16 01:06:20;;;;;;;4.35;2.20;;;14.90;99.90;;;;;;5066123;28;20037;-52
2022/06/16 01:08:48;;;;;;;5.10;2.00;;;14.90;99.90;;;;;;5052055;28;20099;-51
2022/06/16 01:14:42;;;;;;;3.60;1.98;;;14.90;99.90;;;;;;5032078;28;20643;-49
2022/06/16 01:17:37;;;;;;;6.32;2.60;;;14.70;99.90;;;;;;5031787;28;20042;-52
2022/06/16 01:20:23;;;;;;;7.75;1.90;;;14.70;99.90;;;;;;4970809;28;20098;-49
2022/06/16 01:23:09;;;;;;;3.10;1.83;;;14.70;99.90;;;;;;4972884;28;20057;-51
2022/06/16 01:26:06;;;;;;;5.35;2.10;;;14.70;99.90;;;;;;4972848;28;20101;-51
2022/06/16 01:28:52;;;;;;;5.93;2.75;;;14.90;99.90;;;;;;4973081;28;20049;-52
2022/06/16 01:31:18;;;;;;;7.30;2.05;;;14.90;99.90;;;;;;4973056;28;20065;-53
2022/06/16 01:34:04;;;;;;;7.88;2.10;;;14.80;99.90;;;;;;4956420;28;20493;-52
2022/06/16 01:36:38;;;;;;;6.78;2.60;;;14.60;99.90;;;;;;4972915;28;20501;-49
2022/06/16 01:39:44;;;;;;;5.35;2.30;;;14.70;99.90;;;;;;4972719;28;20401;-50
2022/06/16 01:42:28;;;;;;;5.65;2.28;;;14.70;99.90;;;;;;4957326;28;20401;-50
2022/06/16 01:45:13;;;;;;;6.97;2.35;;;14.70;99.90;;;;;;4972718;28;20097;-49
2022/06/16 01:47:43;;;;;;;3.55;1.90;;;14.70;99.90;;;;;;4956690;28;20038;-47
2022/06/16 01:50:17;;;;;;;6.25;2.05;;;14.60;99.90;;;;;;4974666;28;20103;-50
2022/06/16 01:52:55;;;;;;;4.70;2.20;;;14.70;99.90;;;;;;5028142;28;20143;-49
2022/06/16 01:55:27;;;;;;;7.15;2.22;;;14.70;99.90;;;;;;5031197;28;20048;-50
2022/06/16 01:58:07;;;;;;;5.97;2.17;;;14.70;99.90;;;;;;5083649;28;20393;-48
2022/06/16 02:00:33;;;;;;;;;;;14.70;99.90;;;;;;5093941;28;20490;-50
2022/06/16 02:03:07;;;;;;;5.95;1.92;;;14.70;99.90;;;;;;5093222;28;19924;-49
2022/06/16 02:05:51;;;;;;;4.40;2.08;;;14.70;99.90;;;;;;5093334;28;20062;-47
2022/06/16 02:08:24;;;;;;;7.03;2.35;;;14.60;99.90;;;;;;5092828;28;20394;-50
2022/06/16 02:10:54;;;;;;;4.68;2.30;;;14.60;99.90;;;;;;5093296;28;20486;-49
2022/06/16 02:13:24;;;;;;;6.15;1.92;;;14.70;99.90;;;;;;5092975;28;20077;-47
2022/06/16 02:16:02;;;;;;;7.50;2.00;;;14.70;99.90;;;;;;5093474;28;20050;-51
2022/06/16 02:18:31;;;;;;;9.65;3.17;;;14.70;99.90;;;;;;5093110;28;20040;-51
2022/06/16 02:20:56;;;;;;;;;;;14.60;99.90;;;;;;5093775;28;20042;-50
2022/06/16 02:23:22;;;;;;;6.63;2.15;;;14.60;99.90;;;;;;5092626;28;19924;-48
2022/06/16 02:25:53;;;;;;;7.35;2.60;;;14.70;99.90;;;;;;5093343;28;20543;-51
2022/06/16 02:28:19;;;;;;;4.93;2.00;;;14.70;99.90;;;;;;5093166;28;20040;-47
2022/06/16 02:31:17;;;;;;;5.88;1.77;;;14.70;99.90;;;;;;5093347;28;20058;-48
2022/06/16 02:33:54;;;;;;;5.65;1.65;;;14.70;99.90;;;;;;5092944;28;20072;-49
2022/06/16 02:36:58;;;;;;;3.85;2.00;;;14.70;99.90;;;;;;5092692;28;20129;-50
2022/06/16 02:39:35;;;;;;;3.70;2.10;;;14.70;99.90;;;;;;5092745;28;20371;-50
2022/06/16 02:42:18;;;;;;;4.65;2.22;;;14.60;99.90;;;;;;5092503;28;20368;-50
2022/06/16 02:45:15;;;;;;;6.22;2.33;;;14.40;99.90;;;;;;5091537;28;20032;-50
2022/06/16 02:48:25;;;;;;;4.20;2.00;;;14.40;99.90;;;;;;5068640;28;20046;-51
2022/06/16 02:51:31;;;;;;;3.92;2.15;;;14.40;99.90;;;;;;5069855;28;20040;-48
2022/06/16 02:54:10;;;;;;;4.60;2.10;;;14.40;99.90;;;;;;5049732;28;20123;-51
2022/06/16 02:56:52;;;;;;;3.50;1.95;;;14.20;99.90;;;;;;5069950;28;20041;-51
2022/06/16 02:59:22;;;;;;;7.32;2.70;;;14.20;99.90;;;;;;5070072;28;20045;-51
2022/06/16 03:01:50;;;;;;;5.22;2.33;;;14.30;99.90;;;;;;5069956;28;20040;-52
2022/06/16 03:04:18;;;;;;;5.95;2.40;;;14.30;99.90;;;;;;5069729;28;20115;-51
2022/06/16 03:06:44;;;;;;;6.75;2.80;;;14.30;99.90;;;;;;5053095;28;20033;-50
2022/06/16 03:09:12;;;;;;;6.82;2.42;;;14.30;99.90;;;;;;5069850;28;20044;-51
2022/06/16 03:11:38;;;;;;;6.40;2.67;;;14.30;99.90;;;;;;5069662;28;20074;-50
2022/06/16 03:14:04;;;;;;;7.30;2.40;;;14.30;99.90;;;;;;5069840;28;20399;-50
2022/06/16 03:16:31;;;;;;;5.53;2.28;;;14.30;99.90;;;;;;5069817;28;20036;-51
2022/06/16 03:18:57;;;;;;;8.50;2.60;;;14.30;99.90;;;;;;5069551;28;20071;-51
2022/06/16 03:21:23;;;;;;;5.65;2.50;;;14.20;99.90;;;;;;5068824;28;20040;-51
2022/06/16 03:23:49;;;;;;;4.47;1.85;;;14.30;99.90;;;;;;5069425;28;20445;-49
2022/06/16 03:26:15;;;;;;;4.07;2.33;;;14.30;99.90;;;;;;5069715;28;20585;-52
2022/06/16 03:28:42;;;;;;;5.82;2.50;;;14.20;99.90;;;;;;5090513;28;20044;-51
2022/06/16 03:31:07;;;;;;;8.32;2.50;;;14.20;99.90;;;;;;5091216;28;20048;-52
2022/06/16 03:33:33;;;;;;;7.32;2.58;;;14.30;99.90;;;;;;5090417;28;20486;-51
2022/06/16 03:35:59;;;;;;;6.28;3.17;;;14.30;99.90;;;;;;5091803;28;20044;-51
2022/06/16 03:38:43;;;;;;;9.35;2.92;;;14.30;99.90;;;;;;5090565;28;20123;-51
2022/06/16 03:41:11;;;;;;;4.93;2.50;;;14.30;99.90;;;;;;5091789;28;20074;-47
2022/06/16 03:43:37;;;;;;;7.90;2.70;;;14.50;99.90;;;;;;5092026;28;20123;-50
2022/06/16 03:46:03;;;;;;;4.20;2.33;;;14.50;99.90;;;;;;5091664;28;20035;-49
2022/06/16 03:48:29;;;;;;;7.88;3.58;;;14.50;99.90;;;;;;5091902;28;20044;-52
2022/06/16 03:50:55;;;;;;;7.97;2.80;;;14.40;99.90;;;;;;5091705;28;20046;-50
2022/06/16 03:53:21;;;;;;;7.38;2.60;;;14.40;99.90;;;;;;5091650;28;20062;-51
2022/06/16 03:55:46;;;;;;;8.07;2.65;;;14.40;99.90;;;;;;5056740;28;20479;-49
2022/06/16 03:58:13;;;;;;;7.30;2.53;;;14.40;99.90;;;;;;5091810;28;20133;-51
2022/06/16 04:00:40;;;;;;;8.38;2.78;;;14.40;99.90;;;;;;5091966;28;20044;-49
2022/06/16 04:05:51;;;;;;;4.03;2.90;;;14.40;99.90;;;;;;5091742;28;20048;-52
2022/06/16 04:08:19;;;;;;;6.97;3.30;;;14.40;99.90;;;;;;5091348;28;20187;-51
2022/06/16 04:10:46;;;;;;;6.85;3.13;;;14.40;99.90;;;;;;5091602;28;20425;-50
2022/06/16 04:13:12;;;;;;;6.60;2.83;;;14.40;99.90;;;;;;5090195;28;20040;-52
2022/06/16 04:15:38;;;;;;;8.15;2.97;;;14.40;99.90;;;;;;5091429;28;20063;-51
2022/06/16 04:18:04;;;;;;;6.45;3.05;;;14.40;99.90;;;;;;5091306;28;20036;-51
2022/06/16 04:20:30;;;;;;;9.85;3.60;;;14.40;99.90;;;;;;5091429;28;20044;-52
2022/06/16 04:22:56;;;;;;;9.25;3.53;;;14.50;99.90;;;;;;5091546;28;20135;-50
2022/06/16 04:25:30;;;;;;;6.18;3.70;;;14.50;99.90;;;;;;5091374;28;20170;-52
2022/06/16 04:28:00;;;;;;;7.55;3.28;;;14.60;99.90;;;;;;5091121;28;20500;-51
2022/06/16 04:30:26;;;;;;;11.75;3.90;;;14.60;99.90;;;;;;5091180;28;20047;-51
2022/06/16 04:32:52;;;;;;;7.82;3.22;;;14.70;99.90;;;;;;5094542;28;20040;-52
2022/06/16 04:35:18;;;;;;;7.25;3.42;;;14.70;99.90;;;;;;5095395;28;20051;-53
2022/06/16 04:37:43;;;;;;;7.03;3.15;;;14.80;99.90;;;;;;5095298;28;20051;-50
2022/06/16 04:40:10;;;;;;;6.28;2.97;;;14.90;99.90;;;;;;5095208;28;20043;-51
2022/06/16 04:42:36;;;;;;;5.10;3.25;;;14.90;99.90;;;;;;5094650;28;20118;-50
2022/06/16 04:45:03;;;;;;;18.65;3.33;;;14.90;99.90;;;;;;5095151;28;20028;-51
2022/06/16 04:47:29;;;;;;;7.25;3.42;;;15.00;99.90;;;;;;5094811;28;20033;-51
2022/06/16 04:49:55;;;;;;;6.65;3.40;;;15.10;99.90;;;;;;5095062;28;20028;-50
2022/06/16 04:52:20;;;;;;;9.73;3.45;;;15.30;99.90;;;;;;5095367;28;20554;-51
2022/06/16 04:54:47;;;;;;;5.75;3.65;;;15.30;99.90;;;;;;5094956;28;20147;-51
2022/06/16 04:57:13;;;;;;;6.95;2.95;;;15.50;99.90;;;;;;5094881;28;20524;-51
2022/06/16 04:59:39;;;;;;;6.07;3.00;;;15.60;99.90;;;;;;5094650;28;20118;-50
2022/06/16 05:02:08;;;;;;;5.53;3.05;;;15.70;99.90;;;;;;5094471;28;20127;-51
2022/06/16 05:04:37;;;;;;;6.03;3.17;;;15.80;99.90;;;;;;5094796;28;20037;-49
2022/06/16 05:07:03;;;;;;;;;;;15.90;99.90;;;;;;5095296;28;20036;-51
2022/06/16 05:09:29;;;;;;;6.25;2.80;;;16.00;99.90;;;;;;5093880;28;19931;-50
2022/06/16 05:11:55;;;;;;;6.03;2.35;;;16.00;99.90;;;;;;5080270;28;20036;-51
2022/06/16 05:14:21;;;;;;;7.68;3.05;;;16.10;99.90;;;;;;5093086;28;20399;-48
2022/06/16 05:16:48;;;;;;;12.80;3.40;;;16.10;99.90;;;;;;5089640;28;20044;-49
2022/06/16 05:19:14;;;;;;;6.10;3.28;;;16.20;99.90;;;;;;5085684;28;20089;-46
2022/06/16 05:21:39;;;;;;;8.30;3.15;;;16.30;99.90;;;;;;5094435;28;20040;-52
2022/06/16 05:24:05;;;;;;;8.38;2.83;;;16.40;99.90;;;;;;5094011;28;20064;-50
2022/06/16 05:26:31;;;;;;;7.13;3.25;;;16.40;99.90;;;;;;5093045;28;20048;-51
2022/06/16 05:28:57;;;;;;;7.22;2.75;;;16.40;99.90;;;;;;5094180;28;20032;-48
2022/06/16 05:31:25;;;;;;;7.45;3.10;;;16.30;99.90;;;;;;5092773;28;20040;-52
2022/06/16 05:33:51;;;;;;;5.90;2.67;;;16.30;99.90;;;;;;5094333;28;20489;-48
2022/06/16 05:36:18;;;;;;;5.18;2.92;;;16.40;99.90;;;;;;5092553;28;20067;-50
2022/06/16 05:38:44;;;;;;;3.60;2.47;;;16.30;99.90;;;;;;5094118;28;20394;-50
2022/06/16 05:41:14;;;;;;;5.15;2.63;;;16.30;99.90;;;;;;5092655;28;20499;-50
2022/06/16 05:43:42;;;;;;;6.03;2.30;;;16.20;99.90;;;;;;5093187;28;20036;-50
2022/06/16 05:46:14;;;;;;;5.43;2.38;;;16.30;99.90;;;;;;5093559;28;20474;-51
2022/06/16 05:48:40;;;;;;;7.10;2.08;;;16.40;99.90;;;;;;5093994;28;20390;-51
2022/06/16 05:51:09;;;;;;;4.57;2.00;;;16.40;99.90;;;;;;5093712;28;20036;-48
2022/06/16 05:53:36;;;;;;;6.25;2.13;;;16.50;99.90;;;;;;5093940;28;20565;-50
2022/06/16 05:56:02;;;;;;;6.18;1.45;;;16.60;99.90;;;;;;5093685;28;20039;-51
2022/06/16 05:58:28;;;;;;;5.22;1.45;;;16.70;99.90;;;;;;5093764;28;20065;-51
2022/06/16 06:00:53;;;;;;;6.90;1.58;;;16.80;99.90;;;;;;5093635;28;20040;-51
2022/06/16 06:03:19;;;;;;;5.70;1.45;;;16.90;99.90;;;;;;5093666;28;20044;-51
2022/06/16 06:05:45;;;;;;;6.40;1.70;;;16.90;99.90;;;;;;5093647;28;20371;-51
2022/06/16 06:16:58;;;;;;;6.25;1.35;;;17.40;99.90;;;;;;5093146;28;20051;-51
2022/06/16 06:19:25;;;;;;;3.90;1.00;;;17.60;99.90;;;;;;5089694;28;20623;-50
2022/06/16 06:22:02;;;;;;;6.30;1.40;;;17.70;99.90;;;;;;5091873;28;20036;-50
2022/06/16 06:24:34;;;;;;;5.95;1.38;;;17.70;99.90;;;;;;5093302;28;20056;-50
2022/06/16 06:27:03;;;;;;;4.88;1.20;;;17.80;99.90;;;;;;5093051;28;20104;-53
2022/06/16 06:29:29;;;;;;;4.15;1.27;;;18.00;99.90;;;;;;5092869;28;20038;-53
2022/06/16 06:31:55;;;;;;;4.88;0.90;;;18.20;99.90;;;;;;5091458;28;20819;-51
2022/06/16 06:34:22;;;;;;;6.13;1.35;;;18.20;99.90;;;;;;5092858;28;20036;-52
2022/06/16 06:36:47;;;;;;;7.00;1.55;;;18.40;99.90;;;;;;5093031;28;20071;-52
2022/06/16 06:39:13;;;;;;;4.43;1.13;;;18.50;99.90;;;;;;5092706;28;20039;-52
2022/06/16 06:41:39;;;;;;;14.68;1.33;;;18.60;99.90;;;;;;5093073;28;20161;-52
2022/06/16 06:44:05;;;;;;;2.65;0.93;;;18.70;99.90;;;;;;5092654;28;20058;-51
2022/06/16 06:46:31;;;;;;;4.47;1.10;;;18.70;99.90;;;;;;5092813;28;20125;-52
2022/06/16 06:48:56;;;;;;;5.50;1.30;;;19.00;99.90;;;;;;5092868;28;20032;-52
2022/06/16 06:51:22;;;;;;;2.95;0.80;;;19.00;99.90;;;;;;5092633;28;20043;-51
2022/06/16 06:53:48;;;;;;;25.30;1.17;;;19.30;99.90;;;;;;5092828;28;20444;-52
2022/06/16 06:56:14;;;;;;;4.75;1.42;;;19.50;99.90;;;;;;5092786;28;20040;-53
2022/06/16 06:58:40;;;;;;;2.92;0.73;;;19.60;99.90;;;;;;5092736;28;20081;-53
2022/06/16 07:01:06;;;;;;;4.40;0.95;;;19.70;99.90;;;;;;5092229;28;20510;-50
2022/06/16 07:03:32;;;;;;;4.78;1.10;;;19.80;99.90;;;;;;5091564;28;20079;-51
2022/06/16 07:06:01;;;;;;;5.07;1.20;;;19.90;99.90;;;;;;5090920;28;20032;-53
2022/06/16 07:08:28;;;;;;;6.07;0.88;;;20.00;99.90;;;;;;5092420;28;20040;-50
2022/06/16 07:10:53;;;;;;;5.30;1.10;;;20.20;99.90;;;;;;5092303;28;20032;-51
2022/06/16 07:13:19;;;;;;;7.00;0.93;;;20.50;99.90;;;;;;5092133;28;20039;-52
2022/06/16 07:15:45;;;;;;;2.58;0.90;;;20.70;99.90;;;;;;5092156;28;20044;-52
2022/06/16 07:18:11;;;;;;;2.05;0.90;;;20.70;99.90;;;;;;5092201;28;20047;-51
2022/06/16 07:20:36;;;;;;;6.30;1.10;;;21.00;99.90;;;;;;5092017;28;20043;-53
2022/06/16 07:23:02;;;;;;;3.35;1.13;;;21.10;99.90;;;;;;5090389;28;20056;-51
2022/06/16 07:25:28;;;;;;;4.22;1.30;;;21.10;99.90;;;;;;5092159;28;20036;-52
2022/06/16 07:27:56;;;;;;;4.68;1.40;;;21.30;99.90;;;;;;5091991;28;20052;-52
2022/06/16 07:30:23;;;;;;;5.25;1.38;;;21.30;99.90;;;;;;5091782;28;20401;-53
2022/06/16 07:32:50;;;;;;;2.75;1.00;;;21.40;99.90;;;;;;5092128;28;20036;-52
2022/06/16 07:35:18;;;;;;;3.88;1.48;;;21.50;99.90;;;;;;5090789;28;20046;-47
2022/06/16 07:37:44;;;;;;;4.28;1.15;;;21.20;99.90;;;;;;5092031;28;20062;-51
2022/06/16 07:40:13;;;;;;;0.88;0.68;;;21.30;99.90;;;;;;5091752;28;20032;-52
2022/06/16 07:42:39;;;;;;;4.85;1.05;;;21.70;99.90;;;;;;5091496;28;20043;-47
2022/06/16 07:45:06;;;;;;;3.22;1.05;;;21.90;99.90;;;;;;5091916;28;20439;-50
2022/06/16 07:47:32;;;;;;;3.28;1.27;;;22.20;99.90;;;;;;5090599;28;20040;-51
2022/06/16 07:49:58;;;;;;;5.82;1.42;;;22.00;99.90;;;;;;5091664;28;20084;-52
2022/06/16 07:52:24;;;;;;;3.47;1.10;;;22.10;99.90;;;;;;5091915;28;20048;-52
2022/06/16 07:54:49;;;;;;;3.70;0.95;;;22.30;99.90;;;;;;5091474;28;20066;-52
2022/06/16 07:57:17;;;;;;;2.70;1.10;;;22.40;99.90;;;;;;5091463;28;20082;-53
2022/06/16 07:59:44;;;;;;;4.30;1.90;;;22.60;99.90;;;;;;5091724;28;20039;-51
2022/06/16 08:02:10;;;;;;;4.38;1.10;;;22.90;99.90;;;;;;5091575;28;20040;-53
2022/06/16 08:04:35;;;;;;;7.03;1.40;;;23.00;99.90;;;;;;5091654;28;20043;-53
2022/06/16 08:07:01;;;;;;;3.45;1.02;;;23.20;99.90;;;;;;5092339;28;20439;-54
2022/06/16 08:09:31;;;;;;;3.92;1.10;;;23.40;99.90;;;;;;5094845;28;20406;-54
2022/06/16 08:12:09;;;;;;;3.67;1.48;;;23.40;99.90;;;;;;5095582;28;20036;-52
2022/06/16 08:14:38;;;;;;;3.85;1.40;;;23.40;99.90;;;;;;5096034;28;20412;-54
2022/06/16 08:17:08;;;;;;;10.27;1.58;;;23.60;99.90;;;;;;5095954;28;20036;-54
2022/06/16 08:19:34;;;;;;;3.15;1.50;;;23.70;99.90;;;;;;5095697;28;20032;-57
2022/06/16 08:22:00;;;;;;;3.05;0.90;;;24.90;99.90;;;;;;5095399;28;20493;-57
2022/06/16 08:24:25;;;;;;;2.47;1.20;;;25.10;99.70;;;;;;5095362;28;20059;-57
2022/06/16 08:26:51;;;;;;;4.05;1.33;;;25.20;99.90;;;;;;5095283;28;20382;-56
2022/06/16 08:29:18;;;;;;;3.83;1.33;;;25.90;99.10;;;;;;5095411;28;20040;-57
2022/06/16 08:31:44;;;;;;;6.03;1.63;;;26.30;98.70;;;;;;5095473;28;20443;-57
2022/06/16 08:34:10;;;;;;;2.85;1.30;;;26.60;97.80;;;;;;5095044;28;20031;-57
2022/06/16 08:36:36;;;;;;;3.42;1.05;;;26.70;98.60;;;;;;5095754;28;20472;-57
2022/06/16 08:39:04;;;;;;;3.40;1.63;;;26.70;96.70;;;;;;5095133;28;20039;-57
2022/06/16 08:41:32;;;;;;;5.30;1.63;;;27.00;96.60;;;;;;5095213;28;20040;-57
2022/06/16 08:44:09;;;;;;;3.58;1.52;;;27.30;97.10;;;;;;5094908;28;20052;-57
2022/06/16 08:47:00;;;;;;;3.17;1.50;;;26.80;96.70;;;;;;5095320;28;20043;-57
2022/06/16 08:49:39;;;;;;;3.70;1.75;;;26.60;98.10;;;;;;5094775;28;20081;-57
2022/06/16 08:52:40;;;;;;;2.60;1.48;;;26.40;98.20;;;;;;5095493;28;20040;-56
2022/06/16 08:55:29;;;;;;;4.32;1.67;;;27.10;97.00;;;;;;5071830;28;20428;-56
2022/06/16 08:58:20;;;;;;;5.90;2.03;;;26.30;98.00;;;;;;5094979;28;20043;-56
2022/06/16 09:00:54;;;;;;;5.40;1.60;;;26.70;97.60;;;;;;5094920;28;20040;-57
2022/06/16 09:03:38;;;;;;;3.85;1.40;;;27.30;96.80;;;;;;5067450;28;20051;-57
2022/06/16 09:06:13;;;;;;;3.17;1.30;;;27.80;96.60;;;;;;5094417;28;20036;-57
2022/06/16 09:09:05;;;;;;;2.35;1.20;;;27.40;96.80;;;;;;5094719;28;20085;-56
2022/06/16 09:11:54;;;;;;;4.30;1.52;;;26.90;97.10;;;;;;5094428;28;20032;-56
2022/06/16 09:18:27;;;;;;;2.50;1.65;;;25.80;96.10;;;;;;5076418;28;20076;-57
2022/06/16 09:21:07;;;;;;;3.75;1.70;;;25.00;97.50;;;;;;5071844;28;20544;-56
2022/06/16 09:23:55;;;;;;;3.38;1.60;;;24.70;98.90;;;;;;5071594;28;20132;-57
2022/06/16 09:26:33;;;;;;;4.47;1.67;;;24.40;99.00;;;;;;5071847;28;20169;-57
2022/06/16 09:29:22;;;;;;;3.83;1.27;;;24.60;99.50;;;;;;5071783;28;20427;-57
2022/06/16 09:31:51;;;;;;;5.85;1.55;;;25.60;99.40;;;;;;5071563;28;20119;-57
2022/06/16 09:35:04;;;;;;;5.00;1.63;;;26.70;97.80;;;;;;5071522;28;20082;-57
2022/06/16 09:37:46;;;;;;;2.65;1.65;;;27.40;97.20;;;;;;4992345;28;20050;-57
2022/06/16 09:40:26;;;;;;;6.57;2.20;;;28.30;96.10;;;;;;4992212;28;20089;-57
2022/06/16 09:42:58;;;;;;;3.28;1.85;;;28.80;95.80;;;;;;4992052;28;20541;-55
2022/06/16 09:45:42;;;;;;;4.30;1.90;;;28.70;96.10;;;;;;4992215;28;20046;-56
2022/06/16 09:48:18;;;;;;;4.82;2.17;;;29.10;95.20;;;;;;4992118;28;20050;-56
2022/06/16 09:51:01;;;;;;;4.47;1.92;;;29.20;95.10;;;;;;4991989;28;20396;-56
2022/06/16 09:53:34;;;;;;;4.97;1.75;;;29.10;95.90;;;;;;4977264;28;20564;-56
2022/06/16 09:56:09;;;;;;;6.07;2.28;;;29.30;95.10;;;;;;5031151;28;20037;-56
2022/06/16 09:58:47;;;;;;;5.78;1.85;;;29.60;95.20;;;;;;5031382;28;20156;-56
2022/06/16 10:01:16;;;;;;;4.28;1.90;;;29.40;95.10;;;;;;5031129;28;20522;-55
2022/06/16 10:04:04;;;;;;;4.07;2.60;;;29.80;95.90;;;;;;5014587;28;20050;-55
2022/06/16 10:06:38;;;;;;;6.35;2.13;;;29.10;94.40;;;;;;5014586;28;20045;-56
2022/06/16 10:09:46;;;;;;;4.82;2.28;;;29.10;95.10;;;;;;5030975;28;20079;-57
2022/06/16 10:12:27;;;;;;;4.90;2.22;;;29.70;94.70;;;;;;4991509;28;20544;-55
2022/06/16 10:15:00;;;;;;;5.13;2.10;;;29.30;94.50;;;;;;5051167;28;20053;-54
2022/06/16 10:17:27;;;;;;;5.43;2.28;;;29.60;95.50;;;;;;5050835;28;20053;-55
2022/06/16 10:19:55;;;;;;;4.43;2.10;;;29.80;94.60;;;;;;5050816;28;20088;-53
2022/06/16 10:22:23;;;;;;;2.93;2.40;;;30.00;94.60;;;;;;5050540;28;20560;-54
2022/06/16 10:24:57;;;;;;;4.13;2.20;;;30.00;93.10;;;;;;5033536;28;20510;-54
2022/06/16 10:27:29;;;;;;;3.63;1.83;;;29.90;93.30;;;;;;5050577;28;20106;-53
2022/06/16 10:30:04;;;;;;;4.82;1.85;;;30.20;93.40;;;;;;5050373;28;20037;-55
2022/06/16 10:32:41;;;;;;;4.95;2.20;;;30.50;94.80;;;;;;5033837;28;20148;-54
2022/06/16 10:35:18;;;;;;;4.95;2.40;;;30.00;93.70;;;;;;5050515;28;20045;-54
2022/06/16 10:37:47;;;;;;;9.45;2.65;;;30.30;93.70;;;;;;5050342;28;20406;-55
2022/06/16 10:40:31;;;;;;;5.40;3.17;;;30.50;93.90;;;;;;5050575;28;20077;-53
2022/06/16 10:43:05;;;;;;;4.90;2.03;;;30.40;93.10;;;;;;5050348;28;20045;-54
2022/06/16 10:45:34;;;;;;;6.95;2.38;;;30.30;93.40;;;;;;5050351;28;20445;-54
2022/06/16 10:48:00;;;;;;;6.97;2.85;;;30.60;93.60;;;;;;5061034;28;20044;-55
2022/06/16 10:50:48;;;;;;;3.72;2.20;;;30.50;92.20;;;;;;5084694;28;20085;-55
2022/06/16 10:53:20;;;;;;;3.05;1.85;;;31.00;93.40;;;;;;5066799;28;20115;-55
2022/06/16 10:55:48;;;;;;;5.57;2.50;;;31.20;92.30;;;;;;5092487;28;20044;-56
2022/06/16 10:58:31;;;;;;;5.13;2.20;;;30.40;92.20;;;;;;5092609;28;20036;-55
2022/06/16 11:01:22;;;;;;;4.93;1.98;;;30.70;91.30;;;;;;5092523;28;20043;-55
2022/06/16 11:03:51;;;;;;;4.03;2.47;;;31.00;92.40;;;;;;5092376;28;20128;-55
2022/06/16 11:06:21;;;;;;;2.08;1.50;;;30.60;92.10;;;;;;5092260;28;20032;-54
2022/06/16 11:08:59;;;;;;;3.75;2.58;;;30.30;92.90;;;;;;5092227;28;20483;-54
2022/06/16 11:11:40;;;;;;;4.68;2.13;;;29.80;92.50;;;;;;5092380;28;20057;-54
2022/06/16 11:14:13;;;;;;;5.78;2.08;;;30.30;91.90;;;;;;5092328;28;20043;-54
2022/06/16 11:16:47;;;;;;;8.55;2.40;;;30.50;92.20;;;;;;5090801;28;20051;-56
2022/06/16 11:19:26;;;;;;;4.15;2.47;;;30.20;92.80;;;;;;5091966;28;20036;-55
2022/06/16 11:21:53;;;;;;;4.05;2.30;;;29.80;93.10;;;;;;5092210;28;20554;-55
2022/06/16 11:24:31;;;;;;;4.53;2.17;;;29.50;92.30;;;;;;5091928;28;20062;-55
2022/06/16 11:27:14;;;;;;;5.47;2.28;;;29.60;93.40;;;;;;5091964;28;20114;-55
2022/06/16 11:29:40;;;;;;;2.58;2.17;;;29.80;93.30;;;;;;5092273;28;20382;-53
2022/06/16 11:32:17;;;;;;;4.40;2.10;;;30.20;92.80;;;;;;5091780;28;20040;-55
2022/06/16 11:34:45;;;;;;;2.72;1.88;;;30.30;93.00;;;;;;5085275;28;20040;-56
2022/06/16 11:37:18;;;;;;;3.10;1.90;;;30.50;91.90;;;;;;5091668;28;20506;-54
2022/06/16 11:40:04;;;;;;;6.93;2.88;;;30.20;93.00;;;;;;5092179;28;20085;-55
2022/06/16 11:42:55;;;;;;;5.78;2.03;;;30.40;93.20;;;;;;5090183;28;20638;-54
2022/06/16 11:45:33;;;;;;;5.22;2.33;;;30.70;92.40;;;;;;5092117;28;20040;-55
2022/06/16 11:48:14;;;;;;;7.43;2.20;;;30.80;91.00;;;;;;5063616;28;20421;-53
2022/06/16 11:51:05;;;;;;;3.75;1.77;;;30.70;91.90;;;;;;5091617;28;20036;-54
2022/06/16 11:53:48;;;;;;;3.67;2.00;;;30.60;92.00;;;;;;5029435;28;20045;-53
2022/06/16 11:56:39;;;;;;;3.90;2.00;;;30.40;91.90;;;;;;5029278;28;20160;-55
2022/06/16 11:59:19;;;;;;;4.50;1.95;;;30.70;91.30;;;;;;5029196;28;20049;-54
2022/06/16 12:01:55;;;;;;;3.88;1.83;;;31.00;92.30;;;;;;5012834;28;20128;-54
2022/06/16 12:04:38;;;;;;;2.88;1.85;;;31.00;91.20;;;;;;5029011;28;20151;-53
2022/06/16 12:07:17;;;;;;;4.03;1.95;;;31.40;91.10;;;;;;5029274;28;20042;-52
2022/06/16 12:10:07;;;;;;;3.40;2.00;;;31.30;91.90;;;;;;5029146;28;20131;-54
2022/06/16 12:12:41;;;;;;;5.97;2.03;;;31.10;92.00;;;;;;5029148;28;20055;-55
2022/06/16 12:15:25;;;;;;;2.65;1.58;;;31.20;91.20;;;;;;5029091;28;20540;-53
2022/06/16 12:18:09;;;;;;;4.85;1.77;;;31.30;91.80;;;;;;5029035;28;20073;-54
2022/06/16 12:20:40;;;;;;;7.35;2.35;;;31.20;90.70;;;;;;5029018;28;20045;-54
2022/06/16 12:23:27;;;;;;;3.05;1.90;;;31.20;91.40;;;;;;5028676;28;20062;-55
2022/06/16 12:26:00;;;;;;;2.63;1.50;;;31.10;91.30;;;;;;5028934;28;20053;-55
2022/06/16 12:29:17;;;;;;;4.30;1.80;;;30.50;91.70;;;;;;5029144;28;20448;-55
2022/06/16 12:32:03;;;;;;;4.97;2.13;;;30.10;90.60;;;;;;5008447;28;20054;-54
2022/06/16 12:34:38;;;;;;;4.28;1.80;;;30.50;92.20;;;;;;5008929;28;20050;-53
2022/06/16 12:37:09;;;;;;;2.80;1.60;;;30.50;90.60;;;;;;5009208;28;20045;-55
2022/06/16 12:40:13;;;;;;;6.13;1.98;;;30.70;91.10;;;;;;5009552;28;20047;-54
2022/06/16 12:42:47;;;;;;;8.10;2.05;;;30.90;90.30;;;;;;5009089;28;20193;-54
2022/06/16 12:45:20;;;;;;;4.60;1.98;;;31.10;90.50;;;;;;4992969;28;20550;-54
2022/06/16 12:47:53;;;;;;;4.43;1.65;;;31.00;92.10;;;;;;5008973;28;20042;-53
2022/06/16 12:50:39;;;;;;;7.18;1.85;;;30.80;90.70;;;;;;5009293;28;20053;-53
2022/06/16 12:53:40;;;;;;;3.30;1.90;;;30.40;91.90;;;;;;5010920;28;20488;-54
2022/06/16 12:56:12;;;;;;;5.50;1.90;;;30.50;92.30;;;;;;4973519;28;20149;-52
2022/06/16 12:58:49;;;;;;;3.92;1.92;;;30.70;91.90;;;;;;4973677;28;20441;-55
2022/06/16 13:01:15;;;;;;;4.50;1.90;;;30.80;91.60;;;;;;4973494;28;20051;-54
2022/06/16 13:04:05;;;;;;;4.03;1.60;;;30.80;91.40;;;;;;4973508;28;20043;-52
2022/06/16 13:06:33;;;;;;;4.75;2.17;;;30.40;92.00;;;;;;4973489;28;20043;-55
2022/06/16 13:09:04;;;;;;;4.55;2.65;;;30.20;93.00;;;;;;5055509;28;20049;-51
2022/06/16 13:11:34;;;;;;;2.90;1.80;;;29.60;91.40;;;;;;5071885;28;20040;-51
2022/06/16 13:14:11;;;;;;;3.83;2.08;;;29.40;92.30;;;;;;5055396;28;20040;-52
2022/06/16 13:16:42;;;;;;;5.07;2.08;;;29.00;92.10;;;;;;5071834;28;20094;-52
2022/06/16 13:19:25;;;;;;;4.80;1.90;;;28.80;92.00;;;;;;5072253;28;20052;-51
2022/06/16 13:21:57;;;;;;;4.50;2.05;;;28.70;92.30;;;;;;5071695;28;20555;-52
2022/06/16 13:24:37;;;;;;;4.10;2.28;;;28.40;92.40;;;;;;5071835;28;20056;-49
2022/06/16 13:27:21;;;;;;;5.38;2.40;;;28.50;92.40;;;;;;5071757;28;20429;-52
2022/06/16 13:29:50;;;;;;;2.67;1.73;;;28.10;91.90;;;;;;5071753;28;20163;-52
2022/06/16 13:32:42;;;;;;;3.92;1.80;;;28.30;93.20;;;;;;5088752;28;20415;-51
2022/06/16 13:35:13;;;;;;;4.20;2.08;;;28.20;93.40;;;;;;5071314;28;20518;-52
2022/06/16 13:38:10;;;;;;;3.78;2.28;;;28.20;93.30;;;;;;5064274;28;20212;-52
2022/06/16 13:40:38;;;;;;;6.30;1.98;;;27.90;93.10;;;;;;5053841;28;20078;-50